Delta Poseidon — SVBF6 — position and weather

sailwx.info

Track history (hours):
 
Tides and Currents Weather Stations Pressure Air Temp Water Temp Dewpoint Dewpoint Depression Visibility Wind Speed Wind Dir Waves Ship Positions

Delta Poseidon

Last reported at 2014-Jul-14 23:19 UTC. Time now 2014-Jul-31 15:36 UTC.
Position N 30°20' W 011°54'.
Warning: this ship's position is 16 days out of date.

Length 274 m; draft 9 m.

Type: Tanker. MMSI: 241086000.

Date/timePositionNaut miles runAvg speedWind from/ knotsBaromVisibWave heightAir tempDewpointWater temp
2014-Jul-14 23:19N 30°20' W 011°54'19 9.9
2014-Jul-14 21:22N 30°36' W 011°42'910.0
2014-Jul-14 20:27N 30°44' W 011°36'910.1
2014-Jul-14 19:33N 30°51' W 011°31'178 9.7
2014-Jul-14 01:10N 33°11' W 009°21'6 9.5
2014-Jul-14 00:33N 33°15' W 009°16'49 9.8
2014-Jul-13 19:33N 33°51' W 008°36'10 9.9
2014-Jul-13 18:33N 33°58' W 008°28'10 9.8
2014-Jul-13 17:33N 34°05' W 008°20'10 9.7
2014-Jul-13 16:33N 34°13' W 008°12'11 9.7
2014-Jul-13 15:24N 34°21' W 008°03'87 9.4
2014-Jul-13 06:07N 35°25' W 006°50'7 8.7
2014-Jul-13 05:20N 35°30' W 006°45'7 9.0
2014-Jul-13 04:33N 35°35' W 006°39'8 8.5
2014-Jul-13 03:33N 35°42' W 006°33'8 8.3
2014-Jul-13 02:33N 35°48' W 006°25'9 8.7
2014-Jul-13 01:33N 35°54' W 006°17'38 9.2
2014-Jul-12 21:25N 35°59' W 005°31'7 7.5
2014-Jul-12 20:33N 36°02' W 005°24'  
2014-Jul-09 07:31N 37°28' E 004°24'1010.2
2014-Jul-09 06:31N 37°29' E 004°37'16610.2
2014-Jul-08 14:15N 37°40' E 008°06'1010.2
2014-Jul-08 13:19N 37°41' E 008°18'163 9.7
2014-Jul-07 20:32N 37°14' E 011°40'1010.2
2014-Jul-07 19:31N 37°09' E 011°51'1010.2
2014-Jul-07 18:33N 37°03' E 012°01'1010.3
2014-Jul-07 17:33N 36°58' E 012°12'1010.2
2014-Jul-07 16:33N 36°51' E 012°22'1010.5
2014-Jul-07 15:33N 36°45' E 012°32'1010.4
2014-Jul-07 14:33N 36°39' E 012°43'1010.2
2014-Jul-07 13:33N 36°33' E 012°53'1010.1
2014-Jul-07 12:33N 36°26' E 013°03'1010.2
2014-Jul-07 11:33N 36°20' E 013°13'1010.0
2014-Jul-07 10:33N 36°14' E 013°23'1010.1
2014-Jul-07 09:33N 36°08' E 013°33'1010.0
2014-Jul-07 08:33N 36°02' E 013°43'1010.0
2014-Jul-07 07:33N 35°56' E 013°53'1010.3
2014-Jul-07 06:33N 35°50' E 014°03'1010.1
2014-Jul-07 05:33N 35°44' E 014°13'1010.3
2014-Jul-07 04:33N 35°38' E 014°23'1010.2
2014-Jul-07 03:33N 35°33' E 014°34'1010.3
2014-Jul-07 02:33N 35°29' E 014°46'1010.1
2014-Jul-07 01:33N 35°27' E 014°58'1010.1
2014-Jul-07 00:33N 35°24' E 015°10'1010.3
2014-Jul-06 23:33N 35°21' E 015°22'1210.3
2014-Jul-06 22:24N 35°17' E 015°36'910.4
2014-Jul-06 21:33N 35°15' E 015°46'1010.4
2014-Jul-06 20:33N 35°12' E 015°59'1010.3
2014-Jul-06 19:33N 35°09' E 016°11'1010.2
2014-Jul-06 18:33N 35°06' E 016°23'1010.1
2014-Jul-06 17:33N 35°02' E 016°34'1210.1
2014-Jul-06 16:25N 34°59' E 016°48'910.3
2014-Jul-06 15:33N 34°57' E 016°58'1010.3
2014-Jul-06 14:33N 34°54' E 017°10'1010.2
2014-Jul-06 13:33N 34°51' E 017°22'1110.3
2014-Jul-06 12:31N 34°47' E 017°35'  
Track history (hours):
 
Tides and Currents Weather Stations Pressure Air Temp Water Temp Dewpoint Dewpoint Depression Visibility Wind Speed Wind Dir Waves Ship Positions

Delta Poseidon

Last reported at 2014-Jul-14 23:19 UTC. Time now 2014-Jul-31 15:36 UTC.
Position N 30°20' W 011°54'.
Warning: this ship's position is 16 days out of date.

Length 274 m; draft 9 m.

Type: Tanker. MMSI: 241086000.

Date/timePositionNaut miles runAvg speedWind from/ knotsBaromVisibWave heightAir tempDewpointWater temp
2014-Jul-14 23:19N 30°20' W 011°54'19 9.9
2014-Jul-14 21:22N 30°36' W 011°42'910.0
2014-Jul-14 20:27N 30°44' W 011°36'910.1
2014-Jul-14 19:33N 30°51' W 011°31'178 9.7
2014-Jul-14 01:10N 33°11' W 009°21'6 9.5
2014-Jul-14 00:33N 33°15' W 009°16'49 9.8
2014-Jul-13 19:33N 33°51' W 008°36'10 9.9
2014-Jul-13 18:33N 33°58' W 008°28'10 9.8
2014-Jul-13 17:33N 34°05' W 008°20'10 9.7
2014-Jul-13 16:33N 34°13' W 008°12'11 9.7
2014-Jul-13 15:24N 34°21' W 008°03'87 9.4
2014-Jul-13 06:07N 35°25' W 006°50'7 8.7
2014-Jul-13 05:20N 35°30' W 006°45'7 9.0
2014-Jul-13 04:33N 35°35' W 006°39'8 8.5
2014-Jul-13 03:33N 35°42' W 006°33'8 8.3
2014-Jul-13 02:33N 35°48' W 006°25'9 8.7
2014-Jul-13 01:33N 35°54' W 006°17'38 9.2
2014-Jul-12 21:25N 35°59' W 005°31'7 7.5
2014-Jul-12 20:33N 36°02' W 005°24'  
2014-Jul-09 07:31N 37°28' E 004°24'1010.2
2014-Jul-09 06:31N 37°29' E 004°37'16610.2
2014-Jul-08 14:15N 37°40' E 008°06'1010.2
2014-Jul-08 13:19N 37°41' E 008°18'163 9.7
2014-Jul-07 20:32N 37°14' E 011°40'1010.2
2014-Jul-07 19:31N 37°09' E 011°51'1010.2
2014-Jul-07 18:33N 37°03' E 012°01'1010.3
2014-Jul-07 17:33N 36°58' E 012°12'1010.2
2014-Jul-07 16:33N 36°51' E 012°22'1010.5
2014-Jul-07 15:33N 36°45' E 012°32'1010.4
2014-Jul-07 14:33N 36°39' E 012°43'1010.2
2014-Jul-07 13:33N 36°33' E 012°53'1010.1
2014-Jul-07 12:33N 36°26' E 013°03'1010.2
2014-Jul-07 11:33N 36°20' E 013°13'1010.0
2014-Jul-07 10:33N 36°14' E 013°23'1010.1
2014-Jul-07 09:33N 36°08' E 013°33'1010.0
2014-Jul-07 08:33N 36°02' E 013°43'1010.0
2014-Jul-07 07:33N 35°56' E 013°53'1010.3
2014-Jul-07 06:33N 35°50' E 014°03'1010.1
2014-Jul-07 05:33N 35°44' E 014°13'1010.3
2014-Jul-07 04:33N 35°38' E 014°23'1010.2
2014-Jul-07 03:33N 35°33' E 014°34'1010.3
2014-Jul-07 02:33N 35°29' E 014°46'1010.1
2014-Jul-07 01:33N 35°27' E 014°58'1010.1
2014-Jul-07 00:33N 35°24' E 015°10'1010.3
2014-Jul-06 23:33N 35°21' E 015°22'1210.3
2014-Jul-06 22:24N 35°17' E 015°36'910.4
2014-Jul-06 21:33N 35°15' E 015°46'1010.4
2014-Jul-06 20:33N 35°12' E 015°59'1010.3
2014-Jul-06 19:33N 35°09' E 016°11'1010.2
2014-Jul-06 18:33N 35°06' E 016°23'1010.1
2014-Jul-06 17:33N 35°02' E 016°34'1210.1
2014-Jul-06 16:25N 34°59' E 016°48'910.3
2014-Jul-06 15:33N 34°57' E 016°58'1010.3
2014-Jul-06 14:33N 34°54' E 017°10'1010.2
2014-Jul-06 13:33N 34°51' E 017°22'1110.3
2014-Jul-06 12:31N 34°47' E 017°35'  

Dump ship's entire track history